Time;durP1;ratioP1;P1;durP2;ratioP2;P2;SDS_P1;SDS_P2;PMS_P1;PMS_P2;Temp;Humidity;BMP_temperature;BMP_pressure;BME280_temperature;BME280_humidity;BME280_pressure;Samples;Min_cycle;Max_cycle;Signal;HPM_P1;HPM_P2
2021/11/15 00:01:28;;;;;;;;;;;;;;;5.88;57.37;101609.07;117362;1185;22599;-59
2021/11/15 00:03:56;;;;;;;;;;;;;;;5.89;56.98;101611.52;117336;1182;21889;-60
2021/11/15 00:06:24;;;;;;;;;;;;;;;5.87;57.04;101608.86;117340;1182;21843;-58
2021/11/15 00:08:52;;;;;;;;;;;;;;;5.84;56.90;101611.40;117348;1185;23449;-60
2021/11/15 00:11:40;;;;;;;;;;;;;;;5.81;56.93;101612.52;117321;1183;22084;-59
2021/11/15 00:14:08;;;;;;;;;;;;;;;5.75;57.07;101613.77;117342;1186;21836;-59
2021/11/15 00:16:36;;;;;;;;;;;;;;;5.70;56.85;101614.14;117356;1182;21852;-59
2021/11/15 00:19:07;;;;;;;;;;;;;;;5.66;57.11;101612.64;117313;1186;21842;-58
2021/11/15 00:21:36;;;;;;;;;;;;;;;5.61;57.09;101610.07;117228;1189;22101;-55
2021/11/15 00:24:03;;;;;;;;;;;;;;;5.58;57.02;101612.08;117251;1186;21842;-54
2021/11/15 00:26:33;;;;;;;;;;;;;;;5.55;56.83;101610.60;117360;1185;23445;-55
2021/11/15 00:29:01;;;;;;;;;;;;;;;5.54;57.03;101608.82;117356;1186;21837;-55
2021/11/15 00:31:29;;;;;;;;;;;;;;;5.52;56.96;101611.38;117231;1186;23517;-59
2021/11/15 00:33:57;;;;;;;;;;;;;;;5.50;56.98;101612.04;117339;1182;23528;-59
2021/11/15 00:36:25;;;;;;;;;;;;;;;5.49;56.94;101611.47;117420;1182;24136;-56
2021/11/15 00:38:53;;;;;;;;;;;;;;;5.48;57.13;101605.35;117380;1186;22908;-59
2021/11/15 00:41:22;;;;;;;;;;;;;;;5.47;56.97;101603.08;117223;1179;23570;-59
2021/11/15 00:43:50;;;;;;;;;;;;;;;5.47;56.93;101600.27;117338;1185;21868;-54
2021/11/15 00:46:18;;;;;;;;;;;;;;;5.45;56.96;101601.44;117362;1184;24143;-55
2021/11/15 00:48:46;;;;;;;;;;;;;;;5.44;56.96;101600.73;117311;1185;21847;-55
2021/11/15 00:51:28;;;;;;;;;;;;;;;5.43;57.03;101603.64;117313;1184;23487;-59
2021/11/15 00:53:56;;;;;;;;;;;;;;;5.41;57.01;101598.19;117373;1185;21838;-55
2021/11/15 00:56:25;;;;;;;;;;;;;;;5.39;57.13;101598.67;117414;1185;21827;-54
2021/11/15 00:58:53;;;;;;;;;;;;;;;5.39;57.05;101597.43;117402;1186;21841;-59
2021/11/15 01:01:21;;;;;;;;;;;;;;;5.39;56.83;101595.88;117312;1183;22990;-58
2021/11/15 01:03:50;;;;;;;;;;;;;;;5.40;57.19;101595.02;117349;1183;21849;-55
2021/11/15 01:06:18;;;;;;;;;;;;;;;5.40;57.09;101595.02;117336;1186;21839;-54
2021/11/15 01:08:46;;;;;;;;;;;;;;;5.41;57.11;101599.41;117261;1186;21842;-59
2021/11/15 01:11:14;;;;;;;;;;;;;;;5.41;56.82;101595.56;117352;1185;24140;-55
2021/11/15 01:13:42;;;;;;;;;;;;;;;5.39;57.12;101601.27;117303;1186;21829;-55
2021/11/15 01:16:10;;;;;;;;;;;;;;;5.39;57.14;101599.52;117380;1186;23426;-58
2021/11/15 01:18:41;;;;;;;;;;;;;;;5.40;56.99;101600.59;117312;1182;21842;-56
2021/11/15 01:21:09;;;;;;;;;;;;;;;5.38;57.06;101602.80;117273;1186;23425;-59
2021/11/15 01:23:37;;;;;;;;;;;;;;;5.36;57.03;101609.55;117302;1185;21838;-59
2021/11/15 01:26:06;;;;;;;;;;;;;;;5.36;57.01;101607.25;117426;1183;23423;-54
2021/11/15 01:28:34;;;;;;;;;;;;;;;5.34;56.70;101612.27;117383;1182;24156;-55
2021/11/15 01:31:02;;;;;;;;;;;;;;;5.32;57.00;101606.98;117377;1189;24675;-55
2021/11/15 01:33:31;;;;;;;;;;;;;;;5.29;57.02;101611.08;117286;1186;21854;-59
2021/11/15 01:36:00;;;;;;;;;;;;;;;5.28;56.96;101609.67;117293;1186;23448;-59
2021/11/15 01:38:28;;;;;;;;;;;;;;;5.28;57.15;101611.04;117379;1186;21883;-55
2021/11/15 01:40:56;;;;;;;;;;;;;;;5.27;57.04;101610.33;117322;1186;21837;-59
2021/11/15 01:43:24;;;;;;;;;;;;;;;5.26;56.97;101606.29;117372;1183;23445;-55
2021/11/15 01:45:53;;;;;;;;;;;;;;;5.24;56.91;101609.70;117344;1186;21844;-59
2021/11/15 01:48:21;;;;;;;;;;;;;;;5.20;56.89;101614.31;117471;1182;21870;-59
2021/11/15 01:50:49;;;;;;;;;;;;;;;5.18;56.95;101625.02;117459;1183;23534;-59
2021/11/15 01:53:17;;;;;;;;;;;;;;;5.15;57.10;101628.59;117436;1185;21848;-56
2021/11/15 01:55:45;;;;;;;;;;;;;;;5.15;56.87;101631.54;117533;1183;23429;-60
2021/11/15 01:58:14;;;;;;;;;;;;;;;5.12;56.98;101628.69;117578;1184;21829;-59
2021/11/15 02:00:41;;;;;;;;;;;;;;;5.10;56.91;101632.80;117556;1182;21845;-59
2021/11/15 02:03:10;;;;;;;;;;;;;;;5.08;56.91;101631.16;117500;1183;22444;-59
2021/11/15 02:05:39;;;;;;;;;;;;;;;5.04;57.06;101630.88;117410;1186;23709;-55
2021/11/15 02:08:07;;;;;;;;;;;;;;;5.02;57.10;101638.13;117460;1182;24107;-55
2021/11/15 02:10:35;;;;;;;;;;;;;;;5.00;57.02;101641.73;117402;1182;23456;-55
2021/11/15 02:13:03;;;;;;;;;;;;;;;4.98;57.03;101636.77;117517;1182;23419;-57
2021/11/15 02:15:32;;;;;;;;;;;;;;;4.97;56.89;101637.62;117544;1186;22606;-59
2021/11/15 02:18:05;;;;;;;;;;;;;;;4.97;57.25;101633.59;117525;1185;23433;-55
2021/11/15 02:20:43;;;;;;;;;;;;;;;4.95;57.14;101633.40;117440;1182;21818;-58
2021/11/15 02:23:11;;;;;;;;;;;;;;;4.94;56.88;101629.34;117468;1183;23139;-55
2021/11/15 02:25:40;;;;;;;;;;;;;;;4.94;56.67;101634.92;117526;1183;21875;-59
2021/11/15 02:28:08;;;;;;;;;;;;;;;4.93;56.95;101637.32;117551;1183;21839;-55
2021/11/15 02:30:36;;;;;;;;;;;;;;;4.93;56.84;101637.48;117399;1186;21836;-58
2021/11/15 02:33:04;;;;;;;;;;;;;;;4.91;56.89;101633.63;117553;1182;23451;-56
2021/11/15 02:35:32;;;;;;;;;;;;;;;4.93;56.82;101631.92;117497;1182;23543;-58
2021/11/15 02:38:01;;;;;;;;;;;;;;;4.95;56.93;101631.47;117552;1185;21839;-59
2021/11/15 02:40:29;;;;;;;;;;;;;;;4.97;57.02;101633.45;117482;1183;23446;-59
2021/11/15 02:42:57;;;;;;;;;;;;;;;4.99;56.98;101635.95;117483;1183;22985;-55
2021/11/15 02:45:26;;;;;;;;;;;;;;;5.00;56.98;101639.97;117361;1186;21848;-55
2021/11/15 02:47:54;;;;;;;;;;;;;;;5.00;56.96;101641.54;117442;1186;21839;-55
2021/11/15 02:50:23;;;;;;;;;;;;;;;5.01;56.88;101642.45;117441;1184;22313;-59
2021/11/15 02:52:52;;;;;;;;;;;;;;;5.01;57.02;101644.52;117428;1183;21895;-55
2021/11/15 02:55:21;;;;;;;;;;;;;;;5.01;57.05;101642.98;117397;1182;22932;-55
2021/11/15 02:57:49;;;;;;;;;;;;;;;5.02;57.07;101643.36;117552;1182;24117;-59
2021/11/15 03:00:27;;;;;;;;;;;;;;;5.03;56.85;101639.02;117367;1182;23045;-55
2021/11/15 03:02:59;;;;;;;;;;;;;;;5.02;57.13;101640.73;117421;1185;22815;-59
2021/11/15 03:05:31;;;;;;;;;;;;;;;5.01;56.69;101644.36;117439;1182;21895;-55
2021/11/15 03:07:59;;;;;;;;;;;;;;;4.99;56.82;101644.12;117544;1185;22623;-55
2021/11/15 03:10:28;;;;;;;;;;;;;;;4.99;57.19;101650.74;117515;1185;24132;-59
2021/11/15 03:12:56;;;;;;;;;;;;;;;4.97;56.85;101651.53;117467;1183;22924;-54
2021/11/15 03:15:32;;;;;;;;;;;;;;;4.92;57.04;101650.88;117415;1179;22912;-55
2021/11/15 03:18:01;;;;;;;;;;;;;;;4.90;56.90;101650.61;117562;1184;22626;-55
2021/11/15 03:20:31;;;;;;;;;;;;;;;4.88;56.95;101649.34;117565;1182;21847;-55
2021/11/15 03:22:59;;;;;;;;;;;;;;;4.85;56.73;101655.86;117517;1184;21845;-59
2021/11/15 03:25:27;;;;;;;;;;;;;;;4.82;56.87;101656.28;117425;1183;23449;-54
2021/11/15 03:27:56;;;;;;;;;;;;;;;4.77;56.82;101659.11;117367;1185;22930;-59
2021/11/15 03:30:24;;;;;;;;;;;;;;;4.73;56.73;101660.34;117396;1183;22077;-59
2021/11/15 03:32:52;;;;;;;;;;;;;;;4.70;56.86;101658.67;117471;1182;22619;-55
2021/11/15 03:35:21;;;;;;;;;;;;;;;4.67;56.90;101656.86;117406;1185;21876;-59
2021/11/15 03:37:51;;;;;;;;;;;;;;;4.64;56.89;101659.18;117535;1182;23551;-55
2021/11/15 03:40:20;;;;;;;;;;;;;;;4.61;56.88;101660.50;117526;1183;23640;-59
2021/11/15 03:42:48;;;;;;;;;;;;;;;4.59;56.88;101663.20;117454;1185;21844;-59
2021/11/15 03:45:16;;;;;;;;;;;;;;;4.56;56.86;101662.95;117407;1183;23501;-55
2021/11/15 03:47:45;;;;;;;;;;;;;;;4.54;56.79;101663.55;117344;1184;21876;-55
2021/11/15 03:50:13;;;;;;;;;;;;;;;4.50;56.76;101664.13;117420;1185;23524;-58
2021/11/15 03:52:42;;;;;;;;;;;;;;;4.47;56.83;101663.67;117419;1182;21844;-55
2021/11/15 03:55:11;;;;;;;;;;;;;;;4.40;56.64;101665.88;117469;1183;21845;-59
2021/11/15 03:57:39;;;;;;;;;;;;;;;4.34;56.96;101666.20;117570;1185;21958;-58
2021/11/15 04:00:08;;;;;;;;;;;;;;;4.28;56.93;101671.93;117490;1183;25650;-56
2021/11/15 04:02:37;;;;;;;;;;;;;;;4.26;56.80;101672.51;117501;1186;21841;-55
2021/11/15 04:05:07;;;;;;;;;;;;;;;4.23;56.90;101673.80;117547;1184;21822;-58
2021/11/15 04:07:39;;;;;;;;;;;;;;;4.20;56.76;101674.74;117426;1183;21835;-58
2021/11/15 04:10:11;;;;;;;;;;;;;;;4.18;56.58;101676.10;117545;1182;21925;-58
2021/11/15 04:12:40;;;;;;;;;;;;;;;4.19;56.88;101681.33;117554;1182;21843;-55
2021/11/15 04:15:08;;;;;;;;;;;;;;;4.18;56.96;101684.27;117535;1183;23452;-55
2021/11/15 04:17:37;;;;;;;;;;;;;;;4.16;56.89;101685.07;117556;1183;23523;-54
2021/11/15 04:20:05;;;;;;;;;;;;;;;4.14;56.82;101686.23;117537;1182;21826;-55
2021/11/15 04:22:35;;;;;;;;;;;;;;;4.12;56.94;101689.77;117543;1183;22604;-58
2021/11/15 04:25:04;;;;;;;;;;;;;;;4.10;56.56;101690.41;117520;1176;21835;-55
2021/11/15 04:27:33;;;;;;;;;;;;;;;4.06;56.62;101690.23;117496;1185;23687;-55
2021/11/15 04:30:01;;;;;;;;;;;;;;;4.02;56.67;101694.11;117466;1185;22796;-58
2021/11/15 04:32:29;;;;;;;;;;;;;;;4.01;56.75;101695.66;117436;1183;22960;-54
2021/11/15 04:34:57;;;;;;;;;;;;;;;4.02;57.00;101693.95;117399;1188;21876;-55
2021/11/15 04:37:25;;;;;;;;;;;;;;;4.11;57.15;101695.48;117429;1182;22087;-58
2021/11/15 04:39:54;;;;;;;;;;;;;;;4.22;57.00;101698.45;117402;1185;21848;-57
2021/11/15 04:42:23;;;;;;;;;;;;;;;4.27;56.87;101699.34;117474;1183;21964;-56
2021/11/15 04:44:51;;;;;;;;;;;;;;;4.29;56.95;101700.63;117584;1185;21857;-58
2021/11/15 04:47:20;;;;;;;;;;;;;;;4.32;56.79;101708.35;117404;1183;21838;-55
2021/11/15 04:49:48;;;;;;;;;;;;;;;4.37;57.00;101709.23;117439;1179;21838;-55
2021/11/15 04:52:16;;;;;;;;;;;;;;;4.40;56.73;101712.98;117401;1185;23608;-55
2021/11/15 04:54:44;;;;;;;;;;;;;;;4.39;56.82;101715.58;117477;1185;21829;-55
2021/11/15 04:57:12;;;;;;;;;;;;;;;4.38;56.86;101720.05;117556;1182;21839;-57
2021/11/15 04:59:41;;;;;;;;;;;;;;;4.35;57.11;101724.46;117511;1186;24170;-57
2021/11/15 05:02:09;;;;;;;;;;;;;;;4.34;56.96;101726.86;117493;1182;21890;-54
2021/11/15 05:04:38;;;;;;;;;;;;;;;4.32;56.83;101734.94;117486;1185;23050;-58
2021/11/15 05:07:07;;;;;;;;;;;;;;;4.30;56.81;101735.92;117557;1185;23451;-57
2021/11/15 05:09:35;;;;;;;;;;;;;;;4.26;57.04;101741.89;117531;1184;21834;-55
2021/11/15 05:12:03;;;;;;;;;;;;;;;4.24;56.80;101746.48;117464;1184;21835;-58
2021/11/15 05:14:31;;;;;;;;;;;;;;;4.25;56.88;101749.65;117474;1183;22607;-55
2021/11/15 05:17:00;;;;;;;;;;;;;;;4.27;56.52;101750.42;117525;1182;24110;-55
2021/11/15 05:19:28;;;;;;;;;;;;;;;4.23;56.56;101755.48;117393;1182;23449;-55
2021/11/15 05:21:56;;;;;;;;;;;;;;;4.15;56.65;101755.90;117477;1179;22945;-55
2021/11/15 05:24:25;;;;;;;;;;;;;;;4.12;56.64;101760.48;117496;1183;23432;-58
2021/11/15 05:26:53;;;;;;;;;;;;;;;4.05;56.47;101765.42;117453;1185;24142;-58
2021/11/15 05:29:22;;;;;;;;;;;;;;;4.00;56.48;101768.55;117528;1185;23459;-58
2021/11/15 05:31:53;;;;;;;;;;;;;;;4.01;56.87;101779.36;117473;1183;22969;-56
2021/11/15 05:34:21;;;;;;;;;;;;;;;3.97;56.65;101780.98;117452;1184;21840;-57
2021/11/15 05:36:49;;;;;;;;;;;;;;;3.94;56.90;101785.03;117476;1182;21839;-58
2021/11/15 05:39:19;;;;;;;;;;;;;;;4.00;56.85;101790.98;117392;1185;23569;-55
2021/11/15 05:41:47;;;;;;;;;;;;;;;4.02;56.93;101789.14;117380;1185;24206;-55
2021/11/15 05:44:15;;;;;;;;;;;;;;;4.03;56.84;101793.85;117304;1182;24171;-58
2021/11/15 05:46:44;;;;;;;;;;;;;;;4.04;57.05;101799.64;117404;1184;21838;-59
2021/11/15 05:49:12;;;;;;;;;;;;;;;4.07;57.14;101801.30;117567;1186;21835;-59
2021/11/15 05:51:40;;;;;;;;;;;;;;;4.09;57.06;101811.26;117541;1183;23450;-54
2021/11/15 05:54:09;;;;;;;;;;;;;;;4.11;57.16;101813.77;117496;1182;22501;-59
2021/11/15 05:56:37;;;;;;;;;;;;;;;4.17;57.11;101817.30;117392;1183;23525;-53
2021/11/15 05:59:05;;;;;;;;;;;;;;;4.22;57.17;101818.50;117433;1186;21844;-54
2021/11/15 06:01:34;;;;;;;;;;;;;;;4.25;57.06;101818.27;117457;1185;23548;-54
2021/11/15 06:04:04;;;;;;;;;;;;;;;4.29;57.20;101825.90;117434;1183;24136;-59
2021/11/15 06:06:32;;;;;;;;;;;;;;;4.34;57.07;101821.89;117498;1185;21845;-55
2021/11/15 06:09:00;;;;;;;;;;;;;;;4.44;57.05;101824.69;117459;1182;23557;-55
2021/11/15 06:11:28;;;;;;;;;;;;;;;4.51;56.88;101825.30;117306;1185;22905;-55
2021/11/15 06:14:04;;;;;;;;;;;;;;;4.55;57.13;101826.50;117386;1184;23522;-60
2021/11/15 06:16:32;;;;;;;;;;;;;;;4.64;57.07;101825.77;117331;1183;23528;-59
2021/11/15 06:19:00;;;;;;;;;;;;;;;4.75;56.94;101832.56;117425;1182;22616;-60
2021/11/15 06:21:29;;;;;;;;;;;;;;;4.81;57.01;101833.48;117411;1185;21844;-60
2021/11/15 06:23:57;;;;;;;;;;;;;;;4.86;56.73;101832.46;117416;1183;23449;-55
2021/11/15 06:26:27;;;;;;;;;;;;;;;4.95;56.95;101834.28;117430;1185;23458;-60
2021/11/15 06:28:55;;;;;;;;;;;;;;;5.05;56.99;101833.24;117425;1185;24144;-55
2021/11/15 06:31:23;;;;;;;;;;;;;;;5.18;57.09;101835.08;117441;1182;22626;-54
2021/11/15 06:33:52;;;;;;;;;;;;;;;5.31;57.19;101837.25;117415;1185;24146;-55
2021/11/15 06:36:22;;;;;;;;;;;;;;;5.41;57.28;101842.41;117457;1185;21921;-55
2021/11/15 06:38:51;;;;;;;;;;;;;;;5.49;57.09;101843.55;117450;1183;21994;-55
2021/11/15 06:41:19;;;;;;;;;;;;;;;5.57;57.25;101848.86;117418;1184;21957;-56
2021/11/15 06:43:48;;;;;;;;;;;;;;;5.63;57.08;101850.11;117451;1185;23005;-54
2021/11/15 06:46:16;;;;;;;;;;;;;;;5.71;57.05;101856.45;117474;1185;21957;-60
2021/11/15 06:48:44;;;;;;;;;;;;;;;5.82;57.41;101859.73;117346;1185;23547;-59
2021/11/15 06:51:32;;;;;;;;;;;;;;;5.94;57.28;101855.94;117332;1182;21912;-59
2021/11/15 06:54:01;;;;;;;;;;;;;;;6.05;57.23;101861.52;117388;1185;23486;-58
2021/11/15 06:56:29;;;;;;;;;;;;;;;6.15;57.43;101866.52;117396;1182;21854;-58
2021/11/15 06:58:57;;;;;;;;;;;;;;;6.24;57.40;101868.01;117360;1184;24150;-59
2021/11/15 07:01:25;;;;;;;;;;;;;;;6.32;57.23;101867.36;117366;1183;23430;-58
2021/11/15 07:03:53;;;;;;;;;;;;;;;6.37;57.42;101867.87;117340;1183;23679;-53
2021/11/15 07:06:21;;;;;;;;;;;;;;;6.46;57.38;101872.64;117396;1185;21829;-58
2021/11/15 07:08:49;;;;;;;;;;;;;;;6.57;57.59;101877.66;117408;1184;23432;-57
2021/11/15 07:11:17;;;;;;;;;;;;;;;6.65;57.79;101877.71;117388;1183;23550;-57
2021/11/15 07:13:45;;;;;;;;;;;;;;;6.76;57.73;101876.79;117369;1185;21838;-54
2021/11/15 07:16:13;;;;;;;;;;;;;;;6.93;57.73;101877.60;117408;1183;21866;-58
2021/11/15 07:18:42;;;;;;;;;;;;;;;7.13;57.68;101878.09;117354;1183;23581;-53
2021/11/15 07:21:10;;;;;;;;;;;;;;;7.27;57.78;101878.14;117410;1185;23431;-61
2021/11/15 07:23:38;;;;;;;;;;;;;;;7.43;57.72;101876.24;117319;1183;23473;-57
2021/11/15 07:26:06;;;;;;;;;;;;;;;7.53;57.75;101879.11;117327;1185;23345;-57
2021/11/15 07:28:34;;;;;;;;;;;;;;;7.69;57.95;101880.54;117467;1182;21839;-58
2021/11/15 07:31:02;;;;;;;;;;;;;;;7.87;57.95;101883.23;117447;1183;23443;-54
2021/11/15 07:33:34;;;;;;;;;;;;;;;8.01;57.94;101883.70;117459;1184;21850;-58
2021/11/15 07:36:02;;;;;;;;;;;;;;;8.15;58.11;101886.30;117336;1182;23986;-54
2021/11/15 07:38:30;;;;;;;;;;;;;;;8.27;58.03;101883.23;117417;1179;24144;-55
2021/11/15 07:40:58;;;;;;;;;;;;;;;8.40;57.91;101884.20;117441;1183;24133;-58
2021/11/15 07:43:26;;;;;;;;;;;;;;;8.53;57.90;101885.36;117414;1186;21847;-55
2021/11/15 07:45:54;;;;;;;;;;;;;;;8.63;57.90;101889.77;117379;1185;21876;-55
2021/11/15 07:48:23;;;;;;;;;;;;;;;8.69;57.91;101892.16;117389;1182;23475;-55
2021/11/15 07:50:51;;;;;;;;;;;;;;;8.71;58.14;101894.66;117410;1182;23563;-57
2021/11/15 07:53:20;;;;;;;;;;;;;;;8.82;58.21;101890.12;117314;1184;21854;-55
2021/11/15 07:55:48;;;;;;;;;;;;;;;8.92;58.34;101889.96;117342;1185;23435;-58
2021/11/15 07:58:16;;;;;;;;;;;;;;;9.02;58.41;101891.91;117358;1183;23443;-55
2021/11/15 08:00:44;;;;;;;;;;;;;;;9.15;58.41;101891.79;117375;1184;23426;-55
2021/11/15 08:03:12;;;;;;;;;;;;;;;9.25;58.35;101892.31;117345;1182;23677;-57
2021/11/15 08:05:42;;;;;;;;;;;;;;;9.36;58.34;101888.11;117383;1182;23509;-55
2021/11/15 08:08:10;;;;;;;;;;;;;;;9.48;58.53;101883.42;117371;1185;22061;-57
2021/11/15 08:10:39;;;;;;;;;;;;;;;9.62;58.45;101883.82;117327;1185;24586;-58
2021/11/15 08:13:07;;;;;;;;;;;;;;;9.76;58.43;101887.52;117453;1184;23185;-55
2021/11/15 08:15:35;;;;;;;;;;;;;;;9.90;58.55;101885.82;117334;1185;21836;-57
2021/11/15 08:18:05;;;;;;;;;;;;;;;10.03;58.72;101886.00;117449;1183;23003;-57
2021/11/15 08:20:34;;;;;;;;;;;;;;;10.16;58.67;101883.54;117419;1185;23462;-56
2021/11/15 08:23:09;;;;;;;;;;;;;;;10.28;58.59;101888.44;117302;1182;23449;-58
2021/11/15 08:25:41;;;;;;;;;;;;;;;10.39;58.51;101894.92;117386;1184;23423;-59
2021/11/15 08:28:09;;;;;;;;;;;;;;;10.49;58.73;101893.83;117408;1184;22867;-55
2021/11/15 08:30:38;;;;;;;;;;;;;;;10.59;58.51;101894.82;117407;1185;21859;-55
2021/11/15 08:33:06;;;;;;;;;;;;;;;10.71;58.67;101889.34;117436;1185;21838;-56
2021/11/15 08:35:35;;;;;;;;;;;;;;;10.86;58.61;101887.05;117373;1183;23426;-58
2021/11/15 08:38:12;;;;;;;;;;;;;;;10.96;58.56;101888.38;117382;1185;23440;-56
2021/11/15 08:40:44;;;;;;;;;;;;;;;11.08;58.53;101887.98;117373;1182;23429;-58
2021/11/15 08:43:12;;;;;;;;;;;;;;;11.19;58.77;101887.02;117376;1182;23515;-57
2021/11/15 08:45:41;;;;;;;;;;;;;;;11.30;58.85;101886.07;117429;1185;23460;-59
2021/11/15 08:48:09;;;;;;;;;;;;;;;11.41;58.80;101888.97;117361;1182;23462;-58
2021/11/15 08:50:37;;;;;;;;;;;;;;;11.48;58.66;101891.84;117320;1185;21838;-57
2021/11/15 08:53:05;;;;;;;;;;;;;;;11.58;58.79;101885.23;117312;1183;22419;-58
2021/11/15 08:55:34;;;;;;;;;;;;;;;11.69;58.73;101886.73;117381;1184;21881;-56
2021/11/15 08:58:02;;;;;;;;;;;;;;;11.80;58.72;101888.04;117365;1183;23512;-58
2021/11/15 09:00:30;;;;;;;;;;;;;;;11.93;58.87;101891.45;117319;1182;21838;-58
2021/11/15 09:02:58;;;;;;;;;;;;;;;12.07;58.95;101894.39;117383;1185;21837;-57
2021/11/15 09:05:26;;;;;;;;;;;;;;;12.21;58.78;101892.17;117403;1183;24133;-58
2021/11/15 09:07:55;;;;;;;;;;;;;;;12.27;59.03;101887.80;117351;1182;21844;-57
2021/11/15 09:10:22;;;;;;;;;;;;;;;12.30;58.99;101893.10;117383;1182;22915;-57
2021/11/15 09:12:50;;;;;;;;;;;;;;;12.47;59.00;101887.71;117376;1185;21829;-57
2021/11/15 09:15:19;;;;;;;;;;;;;;;12.59;58.89;101888.99;117423;1185;23445;-57
2021/11/15 09:17:47;;;;;;;;;;;;;;;12.68;58.88;101892.20;117398;1182;22355;-58
2021/11/15 09:20:16;;;;;;;;;;;;;;;12.73;58.78;101887.80;117364;1186;21847;-57
2021/11/15 09:22:44;;;;;;;;;;;;;;;12.68;58.86;101892.02;117387;1182;23423;-57
2021/11/15 09:25:13;;;;;;;;;;;;;;;12.68;58.97;101882.85;117399;1185;22066;-57
2021/11/15 09:27:41;;;;;;;;;;;;;;;12.69;58.95;101876.16;117478;1182;21840;-57
2021/11/15 09:30:10;;;;;;;;;;;;;;;12.73;58.94;101877.41;117419;1185;21845;-56
2021/11/15 09:32:39;;;;;;;;;;;;;;;12.81;59.12;101881.31;117382;1183;23547;-58
2021/11/15 09:35:07;;;;;;;;;;;;;;;12.89;59.09;101879.39;117340;1185;21907;-58
2021/11/15 09:37:36;;;;;;;;;;;;;;;13.02;58.98;101875.72;117409;1182;22926;-58
2021/11/15 09:40:06;;;;;;;;;;;;;;;13.11;59.08;101869.90;117370;1185;22086;-57
2021/11/15 09:42:34;;;;;;;;;;;;;;;13.22;59.14;101871.86;117370;1183;21899;-58
2021/11/15 09:45:04;;;;;;;;;;;;;;;13.33;59.18;101865.51;117443;1182;23242;-57
2021/11/15 09:47:32;;;;;;;;;;;;;;;13.47;59.27;101862.73;117365;1182;24123;-58
2021/11/15 09:50:01;;;;;;;;;;;;;;;13.67;59.27;101867.83;117463;1182;22914;-58
2021/11/15 09:52:29;;;;;;;;;;;;;;;13.83;59.25;101864.45;117379;1182;24136;-57
2021/11/15 09:54:59;;;;;;;;;;;;;;;13.95;59.50;101857.52;117394;1182;23338;-58
2021/11/15 09:57:38;;;;;;;;;;;;;;;14.15;59.56;101856.05;117348;1184;23449;-58
2021/11/15 10:00:09;;;;;;;;;;;;;;;14.31;59.53;101854.75;117376;1185;23428;-58
2021/11/15 10:02:37;;;;;;;;;;;;;;;14.48;59.56;101854.85;117369;1183;21850;-58
2021/11/15 10:05:08;;;;;;;;;;;;;;;14.66;59.62;101846.46;117386;1185;21835;-58
2021/11/15 10:07:43;;;;;;;;;;;;;;;14.84;59.65;101847.26;117389;1182;22642;-58
2021/11/15 10:10:29;;;;;;;;;;;;;;;14.97;59.56;101851.94;117388;1183;21854;-58
2021/11/15 10:13:02;;;;;;;;;;;;;;;15.08;59.39;101856.11;117423;1185;21839;-58
2021/11/15 10:15:43;;;;;;;;;;;;;;;15.13;59.40;101853.05;117439;1179;21934;-58
2021/11/15 10:18:14;;;;;;;;;;;;;;;15.22;59.39;101854.42;117369;1187;22896;-58
2021/11/15 10:20:48;;;;;;;;;;;;;;;15.28;59.35;101852.41;117338;1183;22632;-58
2021/11/15 10:23:25;;;;;;;;;;;;;;;15.36;59.34;101854.65;117396;1183;23532;-57
2021/11/15 10:25:58;;;;;;;;;;;;;;;15.46;59.38;101858.43;117421;1182;21839;-58
2021/11/15 10:28:27;;;;;;;;;;;;;;;15.60;59.42;101860.27;117376;1185;22915;-58
2021/11/15 10:30:56;;;;;;;;;;;;;;;15.72;59.40;101859.60;117303;1182;21824;-58
2021/11/15 10:33:35;;;;;;;;;;;;;;;15.82;59.26;101864.29;117342;1182;21848;-57
2021/11/15 10:36:04;;;;;;;;;;;;;;;15.90;59.23;101863.36;117351;1186;21839;-57
2021/11/15 10:38:45;;;;;;;;;;;;;;;15.95;59.21;101861.18;117449;1182;22630;-57
2021/11/15 10:41:14;;;;;;;;;;;;;;;16.03;59.33;101868.34;117453;1182;23416;-57
2021/11/15 10:43:42;;;;;;;;;;;;;;;16.10;59.23;101869.34;117399;1183;22986;-57
2021/11/15 10:46:26;;;;;;;;;;;;;;;16.18;59.25;101870.66;117419;1184;21845;-57
2021/11/15 10:48:55;;;;;;;;;;;;;;;16.28;59.27;101873.02;117412;1185;21841;-57
2021/11/15 10:52:06;;;;;;;;;;;;;;;16.36;59.18;101875.58;117403;1182;23204;-57
2021/11/15 10:54:53;;;;;;;;;;;;;;;16.46;59.30;101874.55;116958;1186;22922;-58
2021/11/15 10:57:35;;;;;;;;;;;;;;;16.60;59.25;101866.92;116954;1188;21973;-58
2021/11/15 11:00:06;;;;;;;;;;;;;;;16.69;59.14;101862.38;116969;1191;22627;-58
2021/11/15 11:02:36;;;;;;;;;;;;;;;16.70;59.01;101858.48;116975;1187;21863;-58
2021/11/15 11:05:07;;;;;;;;;;;;;;;16.63;58.71;101861.58;116975;1185;21838;-60
2021/11/15 11:07:37;;;;;;;;;;;;;;;16.58;58.66;101866.95;117032;1188;22992;-58
2021/11/15 11:10:16;;;;;;;;;;;;;;;16.52;58.62;101864.92;116974;1188;24114;-58
2021/11/15 11:13:01;;;;;;;;;;;;;;;16.49;58.70;101868.33;117052;1186;21839;-57
2021/11/15 11:15:42;;;;;;;;;;;;;;;16.51;58.75;101869.54;116996;1188;22917;-58
2021/11/15 11:18:18;;;;;;;;;;;;;;;16.55;58.82;101869.66;117021;1185;22018;-57
2021/11/15 11:26:10;;;;;;;;;;;;;;;16.55;58.44;101868.95;117291;1186;21835;-58
2021/11/15 11:28:39;;;;;;;;;;;;;;;16.54;58.48;101867.55;117439;1183;23413;-58
2021/11/15 11:31:07;;;;;;;;;;;;;;;16.52;58.46;101868.65;117399;1184;23449;-57
2021/11/15 11:33:36;;;;;;;;;;;;;;;16.52;58.49;101872.19;117467;1185;22103;-58
2021/11/15 11:36:04;;;;;;;;;;;;;;;16.57;58.51;101875.13;117354;1185;21839;-57
2021/11/15 11:38:33;;;;;;;;;;;;;;;16.61;58.54;101877.73;117411;1185;21842;-58
2021/11/15 11:41:03;;;;;;;;;;;;;;;16.66;58.52;101873.76;117367;1185;24245;-59
2021/11/15 11:43:31;;;;;;;;;;;;;;;16.70;58.45;101876.36;117365;1185;21842;-58
2021/11/15 11:46:00;;;;;;;;;;;;;;;16.72;58.50;101878.46;117416;1182;21841;-58
2021/11/15 11:48:28;;;;;;;;;;;;;;;16.78;58.48;101877.31;117364;1183;23621;-57
2021/11/15 11:50:56;;;;;;;;;;;;;;;16.76;58.41;101878.42;117297;1185;21902;-57
2021/11/15 11:53:25;;;;;;;;;;;;;;;16.67;58.28;101871.98;117383;1183;21839;-57
2021/11/15 11:55:53;;;;;;;;;;;;;;;16.61;58.25;101872.05;117423;1185;21840;-58
2021/11/15 11:58:32;;;;;;;;;;;;;;;16.57;58.23;101878.86;117415;1182;24137;-57
2021/11/15 12:01:16;;;;;;;;;;;;;;;16.53;58.25;101881.55;117356;1182;23450;-58
2021/11/15 12:04:03;;;;;;;;;;;;;;;16.55;58.38;101880.11;117403;1185;21898;-57
2021/11/15 12:06:31;;;;;;;;;;;;;;;16.59;58.33;101880.05;117401;1184;23422;-57
2021/11/15 12:09:00;;;;;;;;;;;;;;;16.60;58.35;101881.10;117383;1185;23416;-58
2021/11/15 12:11:29;;;;;;;;;;;;;;;16.59;58.16;101880.05;117422;1185;22607;-57
2021/11/15 12:13:57;;;;;;;;;;;;;;;16.53;58.11;101881.20;117360;1183;21880;-57
2021/11/15 12:16:53;;;;;;;;;;;;;;;16.42;57.92;101880.11;117483;1185;21883;-59
2021/11/15 12:19:30;;;;;;;;;;;;;;;16.21;57.71;101880.89;117340;1185;24154;-59
2021/11/15 12:22:08;;;;;;;;;;;;;;;16.00;57.62;101883.08;117367;1183;21839;-58
2021/11/15 12:24:36;;;;;;;;;;;;;;;15.79;57.65;101881.86;117424;1182;23632;-57
2021/11/15 12:27:07;;;;;;;;;;;;;;;15.58;57.57;101891.60;117319;1183;23528;-58
2021/11/15 12:29:37;;;;;;;;;;;;;;;15.37;57.45;101895.48;117419;1185;23424;-59
2021/11/15 12:32:07;;;;;;;;;;;;;;;15.20;57.48;101898.81;117397;1182;22917;-57
2021/11/15 12:34:38;;;;;;;;;;;;;;;15.06;57.57;101903.67;117373;1182;23556;-57
2021/11/15 12:37:08;;;;;;;;;;;;;;;14.92;57.60;101912.44;117326;1184;21842;-57
2021/11/15 12:39:42;;;;;;;;;;;;;;;14.80;57.58;101914.96;117384;1183;21841;-57
2021/11/15 12:42:40;;;;;;;;;;;;;;;14.68;57.58;101918.02;117358;1184;21879;-58
2021/11/15 12:45:21;;;;;;;;;;;;;;;14.52;57.55;101919.83;117236;1186;22819;-58
2021/11/15 12:47:49;;;;;;;;;;;;;;;14.35;57.50;101923.78;117439;1184;23443;-57
2021/11/15 12:50:19;;;;;;;;;;;;;;;14.24;57.57;101929.99;117380;1183;23449;-57
2021/11/15 12:52:53;;;;;;;;;;;;;;;14.16;57.60;101933.36;117421;1185;21842;-57